Time;durP1;ratioP1;P1;durP2;ratioP2;P2;SDS_P1;SDS_P2;PMS_P1;PMS_P2;Temp;Humidity;BMP_temperature;BMP_pressure;BME280_temperature;BME280_humidity;BME280_pressure;Samples;Min_cycle;Max_cycle;Signal;HPM_P1;HPM_P2
2022/03/13 00:01:42;;;;;;;13.38;11.02;;;16.10;56.20;;;;;;4063413;29;20052;-63
2022/03/13 00:04:08;;;;;;;13.77;10.50;;;16.10;55.60;;;;;;4048298;29;20052;-63
2022/03/13 00:06:33;;;;;;;11.85;10.45;;;16.10;55.60;;;;;;4064689;29;20538;-63
2022/03/13 00:08:58;;;;;;;15.68;10.98;;;16.10;55.40;;;;;;4064868;29;20792;-63
2022/03/13 00:11:22;;;;;;;12.25;10.38;;;16.10;55.50;;;;;;4064250;29;20058;-63
2022/03/13 00:13:53;;;;;;;13.43;11.13;;;16.10;55.60;;;;;;4050679;29;20458;-63
2022/03/13 00:16:17;;;;;;;12.73;10.10;;;16.10;55.30;;;;;;4049671;29;20048;-62
2022/03/13 00:18:46;;;;;;;13.40;10.73;;;16.10;55.30;;;;;;4048534;29;20384;-61
2022/03/13 00:21:10;;;;;;;14.90;10.60;;;16.10;55.30;;;;;;4048090;29;20053;-63
2022/03/13 00:23:33;;;;;;;17.15;11.25;;;16.10;55.70;;;;;;4055338;29;20139;-62
2022/03/13 00:25:55;;;;;;;12.85;9.73;;;16.00;55.70;;;;;;4062819;29;20052;-62
2022/03/13 00:28:18;;;;;;;14.77;11.15;;;16.00;56.40;;;;;;4062724;29;20478;-62
2022/03/13 00:30:42;;;;;;;12.88;10.60;;;16.00;55.70;;;;;;4042863;29;20047;-62
2022/03/13 00:33:04;;;;;;;13.55;10.88;;;16.00;55.70;;;;;;4064360;29;20087;-62
2022/03/13 00:35:26;;;;;;;18.45;11.15;;;16.00;55.60;;;;;;4064180;29;20077;-62
2022/03/13 00:37:48;;;;;;;15.32;10.57;;;16.00;55.60;;;;;;4064015;29;20183;-62
2022/03/13 00:40:13;;;;;;;15.18;10.73;;;16.00;55.70;;;;;;4058792;29;20570;-63
2022/03/13 00:42:35;;;;;;;13.55;10.50;;;16.00;55.90;;;;;;4035490;29;20053;-63
2022/03/13 00:44:58;;;;;;;15.05;11.10;;;16.00;55.90;;;;;;4048297;29;20060;-62
2022/03/13 00:47:21;;;;;;;13.77;11.23;;;15.90;55.60;;;;;;4048268;29;20544;-63
2022/03/13 00:49:43;;;;;;;12.93;11.40;;;15.90;55.40;;;;;;4034066;29;20052;-62
2022/03/13 00:52:07;;;;;;;16.23;11.15;;;15.90;54.90;;;;;;4048404;29;20467;-62
2022/03/13 00:54:29;;;;;;;13.50;10.70;;;15.90;53.90;;;;;;4061631;29;20116;-63
2022/03/13 00:56:53;;;;;;;13.88;11.50;;;15.90;54.00;;;;;;4058210;29;20144;-62
2022/03/13 00:59:15;;;;;;;13.45;10.95;;;15.90;54.30;;;;;;4055854;29;20044;-63
2022/03/13 01:01:39;;;;;;;13.88;10.23;;;15.90;54.20;;;;;;4063616;29;20060;-63
2022/03/13 01:04:03;;;;;;;11.93;10.02;;;15.80;54.70;;;;;;4049289;29;20462;-63
2022/03/13 01:06:26;;;;;;;13.73;11.02;;;15.80;54.40;;;;;;4049422;29;20052;-62
2022/03/13 01:08:49;;;;;;;13.50;10.75;;;15.80;54.20;;;;;;4056700;29;20187;-62
2022/03/13 01:11:12;;;;;;;16.15;11.15;;;15.80;54.60;;;;;;4061232;29;20146;-62
2022/03/13 01:13:35;;;;;;;14.38;10.77;;;15.80;55.20;;;;;;4057024;29;20044;-62
2022/03/13 01:16:12;;;;;;;13.88;10.85;;;15.70;55.50;;;;;;4063391;29;20058;-62
2022/03/13 01:18:41;;;;;;;15.82;11.18;;;15.70;55.90;;;;;;4061472;29;20138;-63
2022/03/13 01:21:03;;;;;;;14.73;10.57;;;15.70;55.90;;;;;;4047466;29;20233;-62
2022/03/13 01:23:25;;;;;;;13.23;11.18;;;15.70;56.00;;;;;;4047721;29;20135;-62
2022/03/13 01:26:27;;;;;;;18.05;11.80;;;15.70;55.60;;;;;;4059072;29;20869;-62
2022/03/13 01:28:50;;;;;;;14.80;11.57;;;15.70;55.50;;;;;;4046901;29;20495;-62
2022/03/13 01:31:12;;;;;;;15.40;12.10;;;15.70;56.00;;;;;;4048799;29;20048;-62
2022/03/13 01:33:36;;;;;;;16.48;11.52;;;15.70;55.70;;;;;;4052210;29;20044;-62
2022/03/13 01:35:58;;;;;;;15.35;12.02;;;15.70;55.50;;;;;;4033389;29;20072;-63
2022/03/13 01:38:20;;;;;;;15.27;11.50;;;15.60;55.30;;;;;;4047634;29;20052;-62
2022/03/13 01:40:44;;;;;;;15.45;11.02;;;15.60;55.50;;;;;;4052327;29;20056;-63
2022/03/13 01:43:06;;;;;;;12.25;10.40;;;15.60;55.60;;;;;;4063314;29;20063;-62
2022/03/13 01:45:29;;;;;;;17.80;11.73;;;15.60;55.70;;;;;;4052028;29;20509;-62
2022/03/13 01:47:51;;;;;;;15.48;12.07;;;15.60;55.50;;;;;;4046713;29;20060;-61
2022/03/13 01:50:16;;;;;;;15.38;11.50;;;15.60;55.40;;;;;;4047106;29;20120;-62
2022/03/13 01:52:40;;;;;;;13.50;11.07;;;15.60;55.80;;;;;;4034983;29;20512;-62
2022/03/13 01:55:03;;;;;;;15.20;11.02;;;15.60;55.00;;;;;;4062656;29;20562;-62
2022/03/13 01:57:26;;;;;;;14.13;11.35;;;15.60;55.30;;;;;;4063082;29;20048;-63
2022/03/13 01:59:51;;;;;;;12.95;11.18;;;15.60;55.60;;;;;;4062311;29;20059;-63
2022/03/13 02:02:17;;;;;;;14.07;11.18;;;15.50;55.00;;;;;;4063072;29;20131;-63
2022/03/13 02:04:41;;;;;;;13.30;11.90;;;15.50;54.60;;;;;;4056287;29;20087;-63
2022/03/13 02:07:04;;;;;;;16.23;11.52;;;15.50;54.10;;;;;;4049707;29;20064;-63
2022/03/13 02:09:27;;;;;;;12.07;10.75;;;15.50;55.50;;;;;;4063087;29;20491;-63
2022/03/13 02:11:51;;;;;;;12.40;10.77;;;15.50;55.00;;;;;;4059767;29;20155;-63
2022/03/13 02:14:17;;;;;;;13.02;10.35;;;15.50;55.80;;;;;;4032896;29;20507;-62
2022/03/13 02:16:39;;;;;;;15.45;12.00;;;15.50;56.00;;;;;;4047451;29;20172;-63
2022/03/13 02:19:01;;;;;;;14.73;11.65;;;15.50;56.00;;;;;;4054641;29;20487;-63
2022/03/13 02:21:26;;;;;;;14.68;11.48;;;15.50;56.60;;;;;;4063043;29;20060;-63
2022/03/13 02:23:50;;;;;;;13.80;11.68;;;15.50;55.30;;;;;;4060699;29;20051;-63
2022/03/13 02:26:12;;;;;;;12.73;10.65;;;15.40;56.00;;;;;;4049474;29;20143;-62
2022/03/13 02:28:36;;;;;;;13.95;11.02;;;15.40;56.40;;;;;;4051365;29;20475;-62
2022/03/13 02:31:00;;;;;;;16.48;10.45;;;15.40;57.30;;;;;;4050529;29;20067;-62
2022/03/13 02:33:23;;;;;;;11.63;10.40;;;15.40;56.70;;;;;;4061985;29;20050;-62
2022/03/13 02:35:52;;;;;;;15.60;11.52;;;15.40;56.80;;;;;;4050896;29;20419;-62
2022/03/13 02:38:14;;;;;;;16.08;11.45;;;15.40;57.00;;;;;;4057240;29;20134;-62
2022/03/13 02:40:38;;;;;;;14.00;11.40;;;15.40;56.90;;;;;;4065712;29;20055;-62
2022/03/13 02:43:00;;;;;;;16.67;11.35;;;15.40;56.90;;;;;;4051562;29;20124;-62
2022/03/13 02:45:29;;;;;;;13.30;11.27;;;15.40;57.00;;;;;;4050061;29;20061;-61
2022/03/13 02:47:51;;;;;;;15.45;12.13;;;15.40;57.00;;;;;;4035329;29;20136;-62
2022/03/13 02:50:14;;;;;;;13.93;10.85;;;15.40;57.10;;;;;;4050114;29;20083;-62
2022/03/13 02:52:36;;;;;;;14.52;10.25;;;15.40;57.20;;;;;;4051381;29;20045;-62
2022/03/13 02:54:58;;;;;;;15.10;11.25;;;15.40;57.00;;;;;;4049757;29;20055;-63
2022/03/13 02:57:22;;;;;;;16.92;11.27;;;15.40;57.10;;;;;;4057569;29;20075;-63
2022/03/13 02:59:44;;;;;;;13.32;10.77;;;15.40;57.10;;;;;;4053977;29;20463;-62
2022/03/13 03:02:07;;;;;;;17.20;12.38;;;15.40;57.10;;;;;;4054781;29;20111;-62
2022/03/13 03:04:29;;;;;;;12.82;11.13;;;15.40;57.00;;;;;;4053743;29;20076;-62
2022/03/13 03:06:55;;;;;;;15.82;12.57;;;15.40;57.10;;;;;;4049598;29;20079;-62
2022/03/13 03:09:18;;;;;;;15.43;11.65;;;15.40;56.40;;;;;;4049173;29;20087;-62
2022/03/13 03:11:40;;;;;;;15.55;12.05;;;15.40;56.40;;;;;;4062353;29;20675;-63
2022/03/13 03:14:05;;;;;;;14.88;11.52;;;15.40;56.70;;;;;;4063870;29;20048;-62
2022/03/13 03:16:26;;;;;;;13.23;10.68;;;15.40;57.00;;;;;;4062118;29;20064;-62
2022/03/13 03:18:49;;;;;;;16.73;11.02;;;15.30;57.00;;;;;;4058081;29;20055;-67
2022/03/13 03:21:13;;;;;;;15.25;11.50;;;15.30;57.10;;;;;;4049757;29;20052;-62
2022/03/13 03:23:35;;;;;;;13.40;10.63;;;15.30;57.10;;;;;;4049843;29;20060;-62
2022/03/13 03:25:58;;;;;;;14.35;11.15;;;15.30;57.10;;;;;;4049501;29;20044;-62
2022/03/13 03:28:22;;;;;;;15.63;12.20;;;15.30;57.00;;;;;;4050041;29;20072;-63
2022/03/13 03:30:46;;;;;;;16.45;11.07;;;15.30;57.00;;;;;;4049094;29;20067;-62
2022/03/13 03:33:09;;;;;;;14.52;10.95;;;15.30;57.20;;;;;;4060567;29;20411;-62
2022/03/13 03:35:32;;;;;;;15.75;12.00;;;15.30;57.40;;;;;;4064588;29;20082;-63
2022/03/13 03:37:56;;;;;;;14.35;11.35;;;15.30;57.40;;;;;;4063358;29;20131;-63
2022/03/13 03:40:22;;;;;;;14.07;11.13;;;15.30;57.30;;;;;;4064287;29;20047;-63
2022/03/13 03:42:44;;;;;;;15.90;11.10;;;15.30;57.30;;;;;;4064559;29;20058;-63
2022/03/13 03:45:08;;;;;;;13.15;11.32;;;15.30;57.40;;;;;;4058403;29;20079;-62
2022/03/13 03:47:31;;;;;;;15.10;11.93;;;15.30;57.50;;;;;;4054926;29;20044;-62
2022/03/13 03:49:53;;;;;;;15.40;11.73;;;15.30;57.30;;;;;;4064975;29;20478;-61
2022/03/13 03:52:16;;;;;;;14.02;12.05;;;15.30;57.80;;;;;;4064396;29;20076;-62
2022/03/13 03:54:38;;;;;;;14.63;11.57;;;15.40;58.10;;;;;;4049733;29;20052;-62
2022/03/13 03:57:00;;;;;;;14.15;11.52;;;15.50;58.10;;;;;;4064480;29;20502;-63
2022/03/13 03:59:23;;;;;;;17.75;11.38;;;15.50;58.00;;;;;;4054376;29;20139;-62
2022/03/13 04:01:46;;;;;;;15.85;11.02;;;15.50;57.90;;;;;;4056019;29;20368;-63
2022/03/13 04:04:13;;;;;;;18.10;12.23;;;15.60;57.80;;;;;;4064376;29;20565;-62
2022/03/13 04:06:38;;;;;;;17.10;11.85;;;15.60;57.70;;;;;;4064283;29;20060;-62
2022/03/13 04:09:00;;;;;;;13.52;11.50;;;15.60;57.60;;;;;;4050504;29;20044;-61
2022/03/13 04:11:22;;;;;;;15.45;11.13;;;15.60;57.50;;;;;;4050179;29;20189;-63
2022/03/13 04:13:45;;;;;;;14.10;10.93;;;15.60;57.50;;;;;;4064572;29;20056;-62
2022/03/13 04:16:10;;;;;;;15.02;11.80;;;15.60;57.50;;;;;;4056439;29;20491;-62
2022/03/13 04:18:32;;;;;;;13.98;12.10;;;15.60;57.40;;;;;;4048836;29;20056;-62
2022/03/13 04:20:56;;;;;;;16.55;10.82;;;15.60;57.40;;;;;;4048577;29;20056;-62
2022/03/13 04:23:18;;;;;;;18.17;11.52;;;15.60;57.20;;;;;;4048724;29;20052;-63
2022/03/13 04:25:41;;;;;;;13.77;11.57;;;15.60;57.20;;;;;;4048663;29;20060;-63
2022/03/13 04:28:10;;;;;;;16.13;11.88;;;15.60;56.90;;;;;;4048560;29;20097;-62
2022/03/13 04:30:32;;;;;;;14.07;11.43;;;15.60;56.90;;;;;;4044502;29;20475;-62
2022/03/13 04:32:56;;;;;;;13.65;11.20;;;15.50;56.80;;;;;;4049585;29;20108;-61
2022/03/13 04:35:18;;;;;;;14.20;11.75;;;15.50;56.90;;;;;;4063141;29;22217;-62
2022/03/13 04:37:42;;;;;;;13.98;11.32;;;15.50;56.80;;;;;;4064020;29;20048;-62
2022/03/13 04:40:10;;;;;;;14.93;11.27;;;15.50;56.40;;;;;;4063839;29;20064;-63
2022/03/13 04:42:32;;;;;;;12.73;10.80;;;15.50;57.00;;;;;;4063606;29;20455;-61
2022/03/13 04:44:54;;;;;;;11.93;10.35;;;15.50;57.00;;;;;;4060190;29;20071;-63
2022/03/13 04:47:16;;;;;;;15.63;12.23;;;15.50;56.80;;;;;;4063378;29;20486;-63
2022/03/13 04:49:39;;;;;;;14.13;11.45;;;15.60;56.60;;;;;;4061873;29;20146;-62
2022/03/13 04:52:03;;;;;;;13.77;11.48;;;15.60;57.00;;;;;;4063836;29;20099;-62
2022/03/13 04:54:26;;;;;;;13.10;11.68;;;15.60;57.10;;;;;;4063658;29;20566;-62
2022/03/13 04:56:48;;;;;;;15.55;11.23;;;15.70;57.10;;;;;;4063846;29;20811;-63
2022/03/13 04:59:11;;;;;;;14.98;11.63;;;15.70;57.40;;;;;;4050182;29;20083;-62
2022/03/13 05:01:33;;;;;;;13.95;11.80;;;15.60;56.90;;;;;;4057373;29;20059;-62
2022/03/13 05:03:55;;;;;;;16.20;12.10;;;15.60;56.30;;;;;;4062744;29;20130;-63
2022/03/13 05:06:17;;;;;;;12.63;10.73;;;15.60;55.80;;;;;;4063276;29;20482;-62
2022/03/13 05:08:40;;;;;;;14.02;11.48;;;15.60;55.80;;;;;;4063022;29;20055;-62
2022/03/13 05:11:05;;;;;;;15.73;10.75;;;15.60;55.30;;;;;;4048273;29;20123;-62
2022/03/13 05:13:27;;;;;;;15.68;11.18;;;15.50;55.40;;;;;;4033220;29;20052;-63
2022/03/13 05:15:51;;;;;;;13.38;10.38;;;15.50;55.40;;;;;;4047421;29;20075;-62
2022/03/13 05:18:13;;;;;;;13.40;11.15;;;15.40;55.70;;;;;;4034051;29;20110;-62
2022/03/13 05:20:36;;;;;;;11.77;10.45;;;15.40;57.30;;;;;;4047416;29;20055;-63
2022/03/13 05:22:58;;;;;;;15.07;11.27;;;15.50;57.80;;;;;;4051410;29;20142;-63
2022/03/13 05:25:23;;;;;;;14.75;11.25;;;15.50;57.90;;;;;;4063335;29;20052;-62
2022/03/13 05:27:46;;;;;;;12.55;11.25;;;15.60;57.90;;;;;;4062865;29;20387;-63
2022/03/13 05:30:09;;;;;;;14.20;11.68;;;15.60;57.40;;;;;;4049538;29;20059;-62
2022/03/13 05:32:34;;;;;;;12.20;10.38;;;15.60;57.40;;;;;;4047738;29;20056;-61
2022/03/13 05:34:57;;;;;;;12.75;10.60;;;15.70;58.20;;;;;;4053314;29;20566;-62
2022/03/13 05:37:19;;;;;;;13.85;10.30;;;15.70;57.50;;;;;;4063172;29;20414;-62
2022/03/13 05:39:41;;;;;;;15.98;11.57;;;15.70;57.30;;;;;;4052181;29;20143;-62
2022/03/13 05:42:05;;;;;;;12.35;10.35;;;15.70;57.90;;;;;;4047284;29;20151;-62
2022/03/13 05:44:29;;;;;;;15.68;11.27;;;15.70;57.10;;;;;;4047344;29;20127;-62
2022/03/13 05:46:51;;;;;;;12.75;10.45;;;15.70;57.30;;;;;;4046957;29;20051;-62
2022/03/13 05:49:13;;;;;;;14.90;10.52;;;15.70;57.30;;;;;;4052227;29;20052;-62
2022/03/13 05:51:39;;;;;;;12.80;11.10;;;15.80;57.50;;;;;;4047385;29;20052;-62
2022/03/13 05:54:02;;;;;;;13.85;11.45;;;15.80;57.40;;;;;;4047431;29;20072;-62
2022/03/13 05:56:24;;;;;;;13.73;10.30;;;15.80;57.40;;;;;;4048332;29;20139;-62
2022/03/13 05:58:47;;;;;;;15.15;10.73;;;15.80;57.30;;;;;;4047199;29;20053;-62
2022/03/13 06:01:11;;;;;;;11.93;10.63;;;15.90;57.50;;;;;;4046361;29;20079;-62
2022/03/13 06:03:33;;;;;;;13.25;10.40;;;15.90;57.20;;;;;;4046139;29;20555;-62
2022/03/13 06:05:56;;;;;;;14.45;11.15;;;15.90;57.00;;;;;;4056230;29;20064;-62
2022/03/13 06:08:18;;;;;;;11.77;10.38;;;16.00;56.80;;;;;;4050183;29;20490;-62
2022/03/13 06:10:40;;;;;;;14.13;10.20;;;16.00;56.90;;;;;;4058803;29;20514;-62
2022/03/13 06:13:02;;;;;;;11.80;10.60;;;16.10;56.70;;;;;;4047160;29;20767;-61
2022/03/13 06:15:25;;;;;;;12.55;10.02;;;16.10;56.70;;;;;;4047004;29;20044;-63
2022/03/13 06:17:50;;;;;;;13.90;10.73;;;16.10;56.50;;;;;;4046092;29;20105;-62
2022/03/13 06:20:13;;;;;;;14.48;10.60;;;16.10;56.60;;;;;;4046893;29;20567;-63
2022/03/13 06:22:35;;;;;;;15.50;10.52;;;16.10;56.60;;;;;;4049881;29;20480;-63
2022/03/13 06:24:57;;;;;;;11.10;9.55;;;16.10;56.70;;;;;;4047039;29;20057;-62
2022/03/13 06:27:20;;;;;;;12.68;10.65;;;16.00;56.70;;;;;;4046793;29;20059;-62
2022/03/13 06:29:42;;;;;;;11.63;9.90;;;16.00;56.80;;;;;;4063041;29;20048;-62
2022/03/13 06:32:05;;;;;;;12.32;9.70;;;16.00;56.70;;;;;;4062801;29;20069;-62
2022/03/13 06:34:29;;;;;;;13.02;11.00;;;16.10;56.60;;;;;;4063000;29;20056;-62
2022/03/13 06:36:51;;;;;;;13.50;10.55;;;16.10;56.60;;;;;;4062832;29;20071;-63
2022/03/13 06:39:13;;;;;;;13.50;10.02;;;16.10;56.50;;;;;;4061088;29;20140;-63
2022/03/13 06:41:36;;;;;;;13.00;10.43;;;16.10;56.40;;;;;;4062535;29;20538;-62
2022/03/13 06:43:58;;;;;;;13.52;10.73;;;16.10;56.10;;;;;;4062696;29;20431;-62
2022/03/13 06:46:20;;;;;;;14.73;10.02;;;16.00;56.30;;;;;;4060445;29;20796;-61
2022/03/13 06:48:42;;;;;;;13.18;10.18;;;16.00;56.50;;;;;;4053328;29;20452;-62
2022/03/13 06:51:06;;;;;;;13.73;9.75;;;16.00;56.70;;;;;;4054067;29;20047;-61
2022/03/13 06:53:28;;;;;;;13.57;9.80;;;16.00;56.70;;;;;;4062783;29;20495;-62
2022/03/13 06:55:52;;;;;;;13.63;10.55;;;16.00;56.80;;;;;;4061098;29;20056;-62
2022/03/13 06:58:14;;;;;;;12.18;9.40;;;16.00;57.00;;;;;;4062442;29;20052;-62
2022/03/13 07:00:36;;;;;;;13.80;9.82;;;16.10;56.80;;;;;;4062539;29;20530;-63
2022/03/13 07:03:00;;;;;;;13.40;9.98;;;16.10;56.70;;;;;;4052495;29;20116;-63
2022/03/13 07:05:24;;;;;;;13.38;9.98;;;16.20;56.80;;;;;;4046920;29;20059;-63
2022/03/13 07:07:47;;;;;;;12.57;9.57;;;16.20;56.60;;;;;;4052338;29;20131;-63
2022/03/13 07:10:10;;;;;;;13.30;9.77;;;16.30;56.60;;;;;;4054425;29;20056;-63
2022/03/13 07:12:32;;;;;;;13.57;9.90;;;16.20;56.50;;;;;;4057031;29;20471;-63
2022/03/13 07:14:56;;;;;;;10.55;9.15;;;16.20;56.60;;;;;;4054247;29;20053;-63
2022/03/13 07:17:18;;;;;;;12.25;9.30;;;16.20;56.50;;;;;;4049297;29;20071;-62
2022/03/13 07:19:43;;;;;;;12.32;9.80;;;16.10;56.20;;;;;;4052560;29;20084;-62
2022/03/13 07:22:05;;;;;;;12.20;9.57;;;16.10;56.10;;;;;;4055571;29;20063;-61
2022/03/13 07:24:29;;;;;;;11.07;9.68;;;16.10;55.70;;;;;;4054934;29;20064;-61
2022/03/13 07:26:52;;;;;;;13.80;10.32;;;16.00;56.10;;;;;;4034531;29;20053;-61
2022/03/13 07:29:18;;;;;;;10.68;9.32;;;16.00;57.40;;;;;;4049575;29;20052;-61
2022/03/13 07:31:40;;;;;;;13.35;9.75;;;15.90;59.00;;;;;;4049610;29;20049;-62
2022/03/13 07:34:02;;;;;;;10.38;8.95;;;15.90;58.80;;;;;;4049080;29;20048;-61
2022/03/13 07:36:25;;;;;;;13.48;9.65;;;15.90;59.00;;;;;;4058467;29;20052;-61
2022/03/13 07:38:47;;;;;;;13.30;9.48;;;15.80;58.70;;;;;;4062555;29;20055;-61
2022/03/13 07:41:11;;;;;;;11.52;9.82;;;15.80;59.00;;;;;;4064451;29;20055;-61
2022/03/13 07:43:34;;;;;;;11.45;9.35;;;15.90;58.80;;;;;;4059062;29;20140;-62
2022/03/13 07:45:56;;;;;;;11.20;9.60;;;15.90;58.10;;;;;;4034558;29;20487;-61
2022/03/13 07:48:18;;;;;;;15.27;9.98;;;15.90;57.80;;;;;;4048777;29;20044;-61
2022/03/13 07:50:40;;;;;;;11.52;9.50;;;16.00;57.00;;;;;;4042162;29;20053;-61
2022/03/13 07:53:03;;;;;;;11.43;9.73;;;16.00;56.40;;;;;;4047579;29;20060;-61
2022/03/13 07:55:25;;;;;;;11.57;9.70;;;16.00;56.60;;;;;;4050371;29;20083;-61
2022/03/13 07:57:49;;;;;;;11.88;8.85;;;16.00;56.10;;;;;;4064064;29;20091;-61
2022/03/13 08:00:15;;;;;;;14.20;9.55;;;16.00;56.60;;;;;;4060629;29;20080;-61
2022/03/13 08:02:37;;;;;;;11.88;9.85;;;16.00;55.40;;;;;;4065065;29;20048;-61
2022/03/13 08:04:59;;;;;;;16.27;10.15;;;16.00;55.30;;;;;;4059874;29;20135;-61
2022/03/13 08:07:21;;;;;;;12.30;9.35;;;15.90;55.00;;;;;;4061082;29;20048;-61
2022/03/13 08:09:44;;;;;;;12.65;10.70;;;15.90;55.30;;;;;;4047917;29;20053;-61
2022/03/13 08:12:07;;;;;;;10.43;9.32;;;15.90;55.30;;;;;;4061843;29;20490;-61
2022/03/13 08:14:30;;;;;;;12.95;9.70;;;15.90;55.10;;;;;;4064224;29;20048;-61
2022/03/13 08:16:53;;;;;;;12.65;9.65;;;15.80;55.00;;;;;;4056800;29;20053;-61
2022/03/13 08:19:15;;;;;;;10.98;9.85;;;15.80;55.00;;;;;;4048930;29;20053;-62
2022/03/13 08:21:38;;;;;;;11.50;9.38;;;15.80;55.00;;;;;;4050427;29;20060;-61
2022/03/13 08:24:00;;;;;;;12.32;9.73;;;15.90;54.90;;;;;;4049481;29;20464;-61
2022/03/13 08:26:23;;;;;;;13.82;9.80;;;16.00;54.60;;;;;;4052647;29;20434;-60
2022/03/13 08:28:45;;;;;;;11.20;9.25;;;16.10;54.30;;;;;;4076606;29;20052;-62
2022/03/13 08:31:09;;;;;;;12.82;10.00;;;16.20;54.50;;;;;;4059718;29;20064;-61
2022/03/13 08:33:31;;;;;;;12.75;9.57;;;16.40;53.40;;;;;;4063974;29;20191;-61
2022/03/13 08:35:54;;;;;;;11.38;9.60;;;16.50;53.10;;;;;;4052289;29;20138;-61
2022/03/13 08:38:16;;;;;;;12.77;9.30;;;16.60;52.70;;;;;;4064134;29;20056;-62
2022/03/13 08:40:38;;;;;;;14.18;10.25;;;16.70;52.30;;;;;;4062493;29;20059;-62
2022/03/13 08:43:00;;;;;;;13.20;9.50;;;16.80;52.00;;;;;;4049725;29;20543;-61
2022/03/13 08:45:23;;;;;;;11.38;9.65;;;16.80;51.80;;;;;;4063597;29;20096;-62
2022/03/13 08:47:48;;;;;;;13.07;9.80;;;16.90;52.00;;;;;;4063678;29;20106;-61
2022/03/13 08:50:11;;;;;;;11.73;9.00;;;16.90;51.80;;;;;;4038655;29;20061;-61
2022/03/13 08:52:35;;;;;;;11.35;9.40;;;16.90;51.70;;;;;;4071013;29;20083;-63
2022/03/13 08:54:57;;;;;;;12.50;9.65;;;16.90;51.70;;;;;;4075991;29;20056;-62
2022/03/13 08:57:19;;;;;;;10.82;9.63;;;16.90;51.60;;;;;;4063887;29;20055;-62
2022/03/13 08:59:41;;;;;;;12.77;10.45;;;16.90;51.70;;;;;;4070627;29;20048;-62
2022/03/13 09:02:04;;;;;;;14.00;9.32;;;16.80;51.60;;;;;;4056811;29;20064;-63
2022/03/13 09:04:29;;;;;;;16.38;9.80;;;16.80;51.50;;;;;;4033526;29;20081;-62
2022/03/13 09:06:54;;;;;;;12.43;9.13;;;16.80;51.60;;;;;;4059084;29;20052;-63
2022/03/13 09:09:18;;;;;;;13.10;10.10;;;16.70;51.50;;;;;;4059063;29;20483;-63
2022/03/13 09:11:41;;;;;;;12.68;9.23;;;16.70;51.80;;;;;;4047503;29;20053;-63
2022/03/13 09:14:04;;;;;;;13.05;9.45;;;16.70;51.80;;;;;;4047831;29;20139;-63
2022/03/13 09:16:28;;;;;;;12.57;9.45;;;16.60;51.80;;;;;;4055116;29;20064;-63
2022/03/13 09:18:51;;;;;;;14.73;9.63;;;16.60;51.90;;;;;;4063590;29;20529;-63
2022/03/13 09:21:15;;;;;;;14.52;9.50;;;16.60;51.80;;;;;;4061055;29;20495;-63
2022/03/13 09:23:37;;;;;;;13.18;9.77;;;16.60;51.80;;;;;;4060584;29;20392;-63
2022/03/13 09:25:59;;;;;;;13.40;9.80;;;16.50;51.90;;;;;;4066687;29;20057;-62
2022/03/13 09:28:21;;;;;;;13.10;9.40;;;16.60;52.00;;;;;;4057762;29;20055;-62
2022/03/13 09:30:44;;;;;;;12.20;9.48;;;16.80;51.80;;;;;;4053646;29;20052;-63
2022/03/13 09:33:06;;;;;;;13.00;9.88;;;17.20;50.70;;;;;;4047496;29;20139;-62
2022/03/13 09:35:29;;;;;;;13.68;10.30;;;17.70;49.40;;;;;;4053198;29;20052;-63
2022/03/13 09:37:52;;;;;;;12.95;10.02;;;18.30;48.10;;;;;;4053718;29;20511;-63
2022/03/13 09:40:17;;;;;;;11.60;9.48;;;18.90;46.80;;;;;;4063358;29;20108;-63
2022/03/13 09:42:39;;;;;;;13.70;9.50;;;19.40;45.60;;;;;;4051749;29;20051;-63
2022/03/13 09:45:01;;;;;;;12.23;9.52;;;19.90;44.80;;;;;;4068853;29;20058;-63
2022/03/13 09:47:24;;;;;;;11.52;9.52;;;20.40;43.60;;;;;;4071958;29;20104;-63
2022/03/13 09:49:46;;;;;;;11.07;9.85;;;20.80;42.30;;;;;;4041654;29;20101;-64
2022/03/13 09:52:08;;;;;;;11.52;9.85;;;21.10;41.90;;;;;;4048837;29;20510;-64
2022/03/13 09:54:32;;;;;;;10.82;9.55;;;21.40;41.50;;;;;;4057981;29;20056;-64
2022/03/13 09:56:55;;;;;;;13.18;10.38;;;21.50;41.50;;;;;;4046589;29;20140;-64
2022/03/13 09:59:17;;;;;;;12.93;9.95;;;21.60;41.30;;;;;;4058023;29;20052;-63
2022/03/13 10:01:39;;;;;;;10.75;8.95;;;21.50;41.50;;;;;;4078580;29;20119;-63
2022/03/13 10:04:04;;;;;;;15.75;10.52;;;21.50;41.40;;;;;;4047917;29;20053;-63
2022/03/13 10:06:26;;;;;;;11.50;9.90;;;21.30;41.50;;;;;;4047169;29;20056;-63
2022/03/13 10:08:48;;;;;;;10.27;9.07;;;21.20;41.60;;;;;;4049662;29;20055;-64
2022/03/13 10:11:12;;;;;;;12.57;10.35;;;21.00;42.00;;;;;;4053812;29;20062;-64
2022/03/13 10:13:39;;;;;;;13.85;10.93;;;20.80;42.40;;;;;;4047195;29;20060;-64
2022/03/13 10:16:02;;;;;;;12.02;10.43;;;20.60;42.80;;;;;;4056611;29;20430;-65
2022/03/13 10:18:26;;;;;;;12.68;9.52;;;20.50;43.20;;;;;;4059718;29;20103;-62
2022/03/13 10:20:50;;;;;;;12.40;10.18;;;20.50;43.40;;;;;;4062790;29;20044;-63
2022/03/13 10:23:16;;;;;;;11.48;9.85;;;20.50;43.60;;;;;;4062153;29;20455;-63
2022/03/13 10:25:41;;;;;;;13.07;9.82;;;20.50;44.00;;;;;;4058979;29;20052;-62
2022/03/13 10:28:18;;;;;;;11.82;9.75;;;20.60;44.30;;;;;;4047436;29;20504;-61
2022/03/13 10:30:40;;;;;;;12.77;9.57;;;20.60;43.80;;;;;;4054067;29;20122;-61
2022/03/13 10:33:03;;;;;;;13.48;10.60;;;20.70;43.70;;;;;;4054132;29;20052;-62
2022/03/13 10:35:25;;;;;;;13.40;10.45;;;20.80;43.50;;;;;;4063017;29;20056;-62
2022/03/13 10:37:48;;;;;;;13.30;10.15;;;20.80;43.30;;;;;;4061137;29;20494;-62
2022/03/13 10:40:19;;;;;;;15.02;10.48;;;20.80;43.40;;;;;;4060971;29;20569;-62
2022/03/13 10:42:44;;;;;;;14.00;10.70;;;20.80;43.30;;;;;;4051071;29;20056;-62
2022/03/13 10:45:08;;;;;;;13.98;10.40;;;20.80;43.30;;;;;;4054685;29;20063;-62
2022/03/13 10:47:32;;;;;;;13.02;10.57;;;20.70;43.40;;;;;;4050867;29;20101;-64
2022/03/13 10:49:54;;;;;;;11.90;10.50;;;20.60;43.40;;;;;;4063525;29;20715;-62
2022/03/13 10:52:29;;;;;;;13.77;10.82;;;20.70;44.10;;;;;;4066462;29;20048;-63
2022/03/13 10:54:56;;;;;;;12.45;10.48;;;20.70;43.50;;;;;;4081237;29;20048;-64
2022/03/13 10:57:19;;;;;;;17.27;10.57;;;20.70;43.40;;;;;;4065290;29;20183;-62
2022/03/13 10:59:43;;;;;;;12.35;10.23;;;20.80;43.30;;;;;;4064791;29;20118;-62
2022/03/13 11:02:14;;;;;;;13.85;10.65;;;20.80;43.30;;;;;;4059176;29;20079;-62
2022/03/13 11:04:36;;;;;;;12.50;10.40;;;20.80;43.20;;;;;;4049948;29;20134;-62
2022/03/13 11:06:59;;;;;;;13.48;10.95;;;20.80;43.20;;;;;;4050027;29;20055;-62
2022/03/13 11:09:21;;;;;;;12.30;10.30;;;20.80;43.30;;;;;;4052027;29;20053;-62
2022/03/13 11:11:44;;;;;;;13.00;11.00;;;20.70;43.40;;;;;;4065318;29;20066;-61
2022/03/13 11:14:08;;;;;;;12.32;10.27;;;20.70;43.50;;;;;;4063763;29;20542;-62
2022/03/13 11:16:32;;;;;;;13.00;10.07;;;20.60;43.50;;;;;;4035362;29;20053;-62
2022/03/13 11:19:03;;;;;;;14.05;10.77;;;20.60;43.60;;;;;;4063187;29;20059;-63
2022/03/13 11:21:27;;;;;;;13.13;10.23;;;20.60;43.80;;;;;;4058535;29;20058;-66
2022/03/13 11:23:49;;;;;;;11.73;10.02;;;20.60;43.50;;;;;;4058003;29;20056;-65
2022/03/13 11:26:15;;;;;;;13.20;11.00;;;20.50;43.80;;;;;;4064188;29;20055;-64
2022/03/13 11:28:38;;;;;;;15.55;11.27;;;20.50;43.80;;;;;;4065426;29;20052;-62
2022/03/13 11:31:00;;;;;;;12.73;11.40;;;20.50;44.00;;;;;;4064834;29;20064;-62
2022/03/13 11:33:44;;;;;;;13.70;11.80;;;20.40;42.40;;;;;;4065296;29;20088;-63
2022/03/13 11:36:28;;;;;;;12.15;10.65;;;20.40;40.00;;;;;;4054879;29;20056;-64
2022/03/13 11:38:59;;;;;;;11.20;9.35;;;20.40;42.30;;;;;;4049368;29;20388;-63
2022/03/13 11:41:34;;;;;;;13.07;10.02;;;20.50;42.00;;;;;;4049169;29;20476;-63
2022/03/13 11:44:00;;;;;;;12.93;11.63;;;20.50;43.40;;;;;;4048912;29;20056;-64
2022/03/13 11:46:40;;;;;;;13.60;11.15;;;20.50;41.00;;;;;;4059662;29;20052;-65
2022/03/13 11:49:15;;;;;;;11.13;9.88;;;20.60;42.20;;;;;;4064008;29;20056;-64
2022/03/13 11:51:38;;;;;;;13.48;10.85;;;20.60;42.10;;;;;;4077112;29;20066;-63
2022/03/13 11:54:03;;;;;;;14.35;11.35;;;20.50;42.30;;;;;;4075684;29;20107;-63
2022/03/13 11:56:30;;;;;;;14.13;10.35;;;20.60;41.60;;;;;;4064859;29;20444;-63
2022/03/13 11:58:53;;;;;;;11.68;10.48;;;20.50;42.50;;;;;;4062509;29;20495;-64
2022/03/13 12:01:18;;;;;;;14.10;10.68;;;20.50;42.40;;;;;;4051523;29;20555;-64
2022/03/13 12:04:19;;;;;;;11.77;9.98;;;20.40;44.00;;;;;;4049050;29;20056;-65
2022/03/13 12:06:44;;;;;;;11.73;10.50;;;20.30;44.10;;;;;;4048481;29;20060;-64
2022/03/13 12:09:07;;;;;;;14.85;11.70;;;20.20;45.40;;;;;;4061975;29;20058;-63
2022/03/13 12:11:38;;;;;;;13.75;10.68;;;20.10;44.50;;;;;;4064669;29;20479;-64
2022/03/13 12:14:00;;;;;;;18.40;11.27;;;20.00;45.00;;;;;;4054709;29;20049;-63